Time;durP1;ratioP1;P1;durP2;ratioP2;P2;SDS_P1;SDS_P2;PMS_P1;PMS_P2;Temp;Humidity;BMP_temperature;BMP_pressure;BME280_temperature;BME280_humidity;BME280_pressure;Samples;Min_cycle;Max_cycle;Signal;HPM_P1;HPM_P2
2023/11/29 00:01:09;;;;;;;;;;;;;;;;;;5076071;28;19916;-78
2023/11/29 00:03:34;;;;;;;;;;;;;;;;;;5075695;28;19912;-78
2023/11/29 00:05:59;;;;;;;;;;;;;;;;;;5077009;28;20225;-78
2023/11/29 00:08:25;;;;;;;;;;;;;;;;;;5075526;28;19908;-78
2023/11/29 00:10:50;;;;;;;;;;;;;;;;;;5076380;28;19915;-78
2023/11/29 00:13:19;;;;;;;;;;;;;;;;;;5074824;28;19909;-77
2023/11/29 00:15:44;;;;;;;;;;;;;;;;;;5075855;28;20022;-78
2023/11/29 00:18:10;;;;;;;;;;;;;;;;;;5074326;28;19948;-78
2023/11/29 00:20:35;;;;;;;;;;;;;;;;;;5074712;28;20011;-78
2023/11/29 00:23:00;;;;;;;;;;;;;;;;;;5074817;28;19999;-78
2023/11/29 00:25:25;;;;;;;;;;;;;;;;;;5075469;28;19915;-77
2023/11/29 00:27:50;;;;;;;;;;;;;;;;;;5076539;28;20007;-78
2023/11/29 00:30:15;;;;;;;;;;;;;;;;;;5076266;28;19908;-78
2023/11/29 00:32:40;;;;;;;;;;;;;;;;;;5077484;28;19935;-78
2023/11/29 00:35:05;;;;;;;;;;;;;;;;;;5075749;28;19961;-76
2023/11/29 00:37:30;;;;;;;;;;;;;;;;;;5074448;28;19909;-76
2023/11/29 00:39:55;;;;;;;;;;;;;;;;;;5074133;28;19908;-76
2023/11/29 00:42:20;;;;;;;;;;;;;;;;;;5073102;28;19913;-76
2023/11/29 00:44:46;;;;;;;;;;;;;;;;;;5074634;28;20419;-76
2023/11/29 00:47:11;;;;;;;;;;;;;;;;;;5074216;28;19944;-76
2023/11/29 00:49:37;;;;;;;;;;;;;;;;;;5073811;28;19999;-76
2023/11/29 00:52:02;;;;;;;;;;;;;;;;;;5072639;28;19948;-76
2023/11/29 00:54:27;;;;;;;;;;;;;;;;;;5074157;28;19909;-76
2023/11/29 00:56:52;;;;;;;;;;;;;;;;;;5074061;28;19940;-76
2023/11/29 00:59:17;;;;;;;;;;;;;;;;;;5074172;28;19995;-76
2023/11/29 01:01:42;;;;;;;;;;;;;;;;;;5074382;28;20353;-76
2023/11/29 01:04:08;;;;;;;;;;;;;;;;;;5072204;28;19909;-76
2023/11/29 01:06:33;;;;;;;;;;;;;;;;;;5072722;28;19924;-76
2023/11/29 01:08:58;;;;;;;;;;;;;;;;;;5072476;28;19912;-76
2023/11/29 01:11:26;;;;;;;;;;;;;;;;;;5073677;28;19958;-76
2023/11/29 01:13:51;;;;;;;;;;;;;;;;;;5073758;28;19918;-76
2023/11/29 01:16:16;;;;;;;;;;;;;;;;;;5073557;28;19908;-76
2023/11/29 01:18:41;;;;;;;;;;;;;;;;;;5072077;28;19909;-76
2023/11/29 01:21:07;;;;;;;;;;;;;;;;;;5073524;28;19913;-76
2023/11/29 01:23:32;;;;;;;;;;;;;;;;;;5071932;28;19908;-76
2023/11/29 01:25:57;;;;;;;;;;;;;;;;;;5073575;28;19908;-76
2023/11/29 01:28:22;;;;;;;;;;;;;;;;;;5073209;28;20385;-76
2023/11/29 01:30:47;;;;;;;;;;;;;;;;;;5073578;28;19912;-76
2023/11/29 01:33:12;;;;;;;;;;;;;;;;;;5071794;28;19917;-76
2023/11/29 01:35:37;;;;;;;;;;;;;;;;;;5071241;28;20052;-76
2023/11/29 01:38:02;;;;;;;;;;;;;;;;;;5074025;28;19908;-76
2023/11/29 01:40:27;;;;;;;;;;;;;;;;;;5071700;28;19909;-76
2023/11/29 01:42:52;;;;;;;;;;;;;;;;;;5073153;28;19908;-76
2023/11/29 01:45:18;;;;;;;;;;;;;;;;;;5071471;28;20293;-76
2023/11/29 01:47:43;;;;;;;;;;;;;;;;;;5072857;28;19908;-76
2023/11/29 01:50:08;;;;;;;;;;;;;;;;;;5072827;28;19908;-76
2023/11/29 01:52:33;;;;;;;;;;;;;;;;;;5072601;28;19931;-76
2023/11/29 01:54:58;;;;;;;;;;;;;;;;;;5073076;28;19935;-76
2023/11/29 01:57:23;;;;;;;;;;;;;;;;;;5071410;28;19909;-76
2023/11/29 01:59:48;;;;;;;;;;;;;;;;;;5072853;28;19908;-76
2023/11/29 02:02:13;;;;;;;;;;;;;;;;;;5072627;28;19909;-76
2023/11/29 02:04:39;;;;;;;;;;;;;;;;;;5072520;28;20381;-76
2023/11/29 02:07:04;;;;;;;;;;;;;;;;;;5071350;28;19909;-76
2023/11/29 02:09:29;;;;;;;;;;;;;;;;;;5071091;28;19944;-76
2023/11/29 02:11:54;;;;;;;;;;;;;;;;;;5072518;28;19913;-76
2023/11/29 02:14:19;;;;;;;;;;;;;;;;;;5071050;28;19998;-76
2023/11/29 02:16:44;;;;;;;;;;;;;;;;;;5072522;28;19914;-76
2023/11/29 02:19:09;;;;;;;;;;;;;;;;;;5072747;28;19921;-76
2023/11/29 02:21:35;;;;;;;;;;;;;;;;;;5070889;28;19908;-76
2023/11/29 02:24:00;;;;;;;;;;;;;;;;;;5072105;28;19912;-76
2023/11/29 02:26:26;;;;;;;;;;;;;;;;;;5072303;28;19909;-76
2023/11/29 02:28:51;;;;;;;;;;;;;;;;;;5072370;28;19915;-76
2023/11/29 02:31:16;;;;;;;;;;;;;;;;;;5072143;28;19913;-76
2023/11/29 02:33:41;;;;;;;;;;;;;;;;;;5072246;28;20009;-76
2023/11/29 02:36:06;;;;;;;;;;;;;;;;;;5070950;28;20382;-76
2023/11/29 02:38:31;;;;;;;;;;;;;;;;;;5070871;28;20358;-76
2023/11/29 02:40:56;;;;;;;;;;;;;;;;;;5072344;28;19908;-76
2023/11/29 02:43:21;;;;;;;;;;;;;;;;;;5072210;28;19908;-76
2023/11/29 02:45:46;;;;;;;;;;;;;;;;;;5072105;28;19912;-76
2023/11/29 02:48:11;;;;;;;;;;;;;;;;;;5070570;28;19908;-76
2023/11/29 02:50:36;;;;;;;;;;;;;;;;;;5071766;28;19918;-76
2023/11/29 02:53:02;;;;;;;;;;;;;;;;;;5070637;28;19937;-76
2023/11/29 02:55:27;;;;;;;;;;;;;;;;;;5071710;28;19912;-76
2023/11/29 02:57:52;;;;;;;;;;;;;;;;;;5072075;28;19913;-76
2023/11/29 03:00:17;;;;;;;;;;;;;;;;;;5071944;28;19909;-76
2023/11/29 03:02:42;;;;;;;;;;;;;;;;;;5072111;28;19908;-76
2023/11/29 03:05:07;;;;;;;;;;;;;;;;;;5071830;28;19916;-76
2023/11/29 03:07:32;;;;;;;;;;;;;;;;;;5071661;28;20421;-76
2023/11/29 03:09:57;;;;;;;;;;;;;;;;;;5070603;28;19908;-76
2023/11/29 03:12:22;;;;;;;;;;;;;;;;;;5071781;28;19966;-76
2023/11/29 03:14:47;;;;;;;;;;;;;;;;;;5072072;28;19962;-76
2023/11/29 03:17:13;;;;;;;;;;;;;;;;;;5070372;28;20266;-76
2023/11/29 03:19:38;;;;;;;;;;;;;;;;;;5071542;28;20377;-76
2023/11/29 03:22:03;;;;;;;;;;;;;;;;;;5071571;28;20003;-76
2023/11/29 03:24:28;;;;;;;;;;;;;;;;;;5071643;28;20002;-76
2023/11/29 03:26:53;;;;;;;;;;;;;;;;;;5071535;28;19915;-76
2023/11/29 03:29:18;;;;;;;;;;;;;;;;;;5071406;28;19919;-76
2023/11/29 03:31:43;;;;;;;;;;;;;;;;;;5069935;28;20366;-76
2023/11/29 03:34:08;;;;;;;;;;;;;;;;;;5071509;28;19916;-76
2023/11/29 03:36:33;;;;;;;;;;;;;;;;;;5071819;28;19919;-76
2023/11/29 03:38:59;;;;;;;;;;;;;;;;;;5071563;28;20050;-76
2023/11/29 03:41:24;;;;;;;;;;;;;;;;;;5070370;28;19908;-76
2023/11/29 03:43:49;;;;;;;;;;;;;;;;;;5070227;28;19916;-76
2023/11/29 03:46:14;;;;;;;;;;;;;;;;;;5069574;28;20034;-76
2023/11/29 03:48:39;;;;;;;;;;;;;;;;;;5070889;28;20345;-76
2023/11/29 03:51:04;;;;;;;;;;;;;;;;;;5069862;28;19913;-76
2023/11/29 03:53:29;;;;;;;;;;;;;;;;;;5071814;28;19915;-76
2023/11/29 03:55:54;;;;;;;;;;;;;;;;;;5070062;28;19915;-76
2023/11/29 03:58:19;;;;;;;;;;;;;;;;;;5070164;28;20305;-76
2023/11/29 04:00:45;;;;;;;;;;;;;;;;;;5075096;28;19912;-76
2023/11/29 04:03:10;;;;;;;;;;;;;;;;;;5075010;28;19939;-76
2023/11/29 04:05:35;;;;;;;;;;;;;;;;;;5074918;28;19991;-77
2023/11/29 04:08:00;;;;;;;;;;;;;;;;;;5073724;28;20003;-76
2023/11/29 04:10:25;;;;;;;;;;;;;;;;;;5075053;28;19908;-76
2023/11/29 04:12:50;;;;;;;;;;;;;;;;;;5073662;28;19916;-76
2023/11/29 04:15:15;;;;;;;;;;;;;;;;;;5074281;28;20331;-76
2023/11/29 04:17:40;;;;;;;;;;;;;;;;;;5074521;28;20415;-76
2023/11/29 04:20:05;;;;;;;;;;;;;;;;;;5074109;28;19967;-76
2023/11/29 04:22:30;;;;;;;;;;;;;;;;;;5073157;28;20387;-76
2023/11/29 04:24:56;;;;;;;;;;;;;;;;;;5074474;28;19997;-76
2023/11/29 04:27:21;;;;;;;;;;;;;;;;;;5074468;28;19914;-76
2023/11/29 04:29:46;;;;;;;;;;;;;;;;;;5073154;28;19912;-76
2023/11/29 04:32:11;;;;;;;;;;;;;;;;;;5074308;28;19919;-76
2023/11/29 04:34:36;;;;;;;;;;;;;;;;;;5072759;28;19919;-76
2023/11/29 04:37:01;;;;;;;;;;;;;;;;;;5074239;28;19951;-76
2023/11/29 04:39:27;;;;;;;;;;;;;;;;;;5073911;28;20177;-76
2023/11/29 04:41:52;;;;;;;;;;;;;;;;;;5074388;28;19917;-76
2023/11/29 04:44:17;;;;;;;;;;;;;;;;;;5072836;28;19908;-76
2023/11/29 04:46:42;;;;;;;;;;;;;;;;;;5074695;28;19909;-76
2023/11/29 04:49:07;;;;;;;;;;;;;;;;;;5072928;28;19934;-76
2023/11/29 04:51:33;;;;;;;;;;;;;;;;;;5073931;28;20377;-76
2023/11/29 04:53:58;;;;;;;;;;;;;;;;;;5074068;28;19909;-76
2023/11/29 04:56:23;;;;;;;;;;;;;;;;;;5072819;28;20376;-76
2023/11/29 04:58:48;;;;;;;;;;;;;;;;;;5073595;28;19909;-76
2023/11/29 05:01:13;;;;;;;;;;;;;;;;;;5073756;28;19920;-76
2023/11/29 05:03:39;;;;;;;;;;;;;;;;;;5073323;28;20161;-76
2023/11/29 05:06:04;;;;;;;;;;;;;;;;;;5073667;28;19913;-76
2023/11/29 05:08:29;;;;;;;;;;;;;;;;;;5073288;28;19958;-76
2023/11/29 05:10:54;;;;;;;;;;;;;;;;;;5073921;28;19913;-76
2023/11/29 05:13:19;;;;;;;;;;;;;;;;;;5073567;28;20021;-76
2023/11/29 05:15:47;;;;;;;;;;;;;;;;;;5073691;28;19916;-76
2023/11/29 05:18:13;;;;;;;;;;;;;;;;;;5073591;28;20374;-76
2023/11/29 05:20:38;;;;;;;;;;;;;;;;;;5073180;28;19915;-76
2023/11/29 05:23:03;;;;;;;;;;;;;;;;;;5073559;28;19954;-76
2023/11/29 05:25:28;;;;;;;;;;;;;;;;;;5073429;28;19908;-76
2023/11/29 05:27:54;;;;;;;;;;;;;;;;;;5073391;28;19925;-76
2023/11/29 05:30:19;;;;;;;;;;;;;;;;;;5073435;28;19909;-76
2023/11/29 05:32:45;;;;;;;;;;;;;;;;;;5071886;28;19912;-76
2023/11/29 05:35:10;;;;;;;;;;;;;;;;;;5071686;28;19908;-76
2023/11/29 05:37:35;;;;;;;;;;;;;;;;;;5071792;28;19969;-76
2023/11/29 05:40:01;;;;;;;;;;;;;;;;;;5071616;28;20435;-76
2023/11/29 05:42:26;;;;;;;;;;;;;;;;;;5072986;28;19916;-76
2023/11/29 05:44:54;;;;;;;;;;;;;;;;;;5071816;28;20022;-76
2023/11/29 05:47:19;;;;;;;;;;;;;;;;;;5072739;28;19912;-76
2023/11/29 05:49:44;;;;;;;;;;;;;;;;;;5072917;28;19909;-76
2023/11/29 05:52:09;;;;;;;;;;;;;;;;;;5072747;28;19920;-76
2023/11/29 05:54:35;;;;;;;;;;;;;;;;;;5072599;28;19908;-76
2023/11/29 05:57:00;;;;;;;;;;;;;;;;;;5072726;28;19913;-76
2023/11/29 05:59:26;;;;;;;;;;;;;;;;;;5072670;28;19916;-76
2023/11/29 06:01:52;;;;;;;;;;;;;;;;;;5072665;28;19909;-76
2023/11/29 06:04:17;;;;;;;;;;;;;;;;;;5072958;28;20384;-76
2023/11/29 06:06:42;;;;;;;;;;;;;;;;;;5072670;28;20377;-76
2023/11/29 06:09:08;;;;;;;;;;;;;;;;;;5070954;28;20439;-75
2023/11/29 06:11:33;;;;;;;;;;;;;;;;;;5072102;28;19913;-75
2023/11/29 06:13:58;;;;;;;;;;;;;;;;;;5072131;28;19913;-76
2023/11/29 06:16:24;;;;;;;;;;;;;;;;;;5072676;28;20005;-76
2023/11/29 06:18:49;;;;;;;;;;;;;;;;;;5072094;28;19917;-76
2023/11/29 06:21:14;;;;;;;;;;;;;;;;;;5072193;28;19908;-76
2023/11/29 06:23:40;;;;;;;;;;;;;;;;;;5072251;28;19958;-76
2023/11/29 06:26:05;;;;;;;;;;;;;;;;;;5071808;28;20286;-76
2023/11/29 06:28:30;;;;;;;;;;;;;;;;;;5072300;28;20380;-76
2023/11/29 06:30:55;;;;;;;;;;;;;;;;;;5072202;28;19999;-76
2023/11/29 06:33:20;;;;;;;;;;;;;;;;;;5071829;28;19912;-76
2023/11/29 06:35:45;;;;;;;;;;;;;;;;;;5072257;28;20289;-76
2023/11/29 06:38:10;;;;;;;;;;;;;;;;;;5072167;28;19916;-76
2023/11/29 06:40:35;;;;;;;;;;;;;;;;;;5072138;28;19908;-76
2023/11/29 06:43:01;;;;;;;;;;;;;;;;;;5072304;28;19909;-76
2023/11/29 06:45:26;;;;;;;;;;;;;;;;;;5072065;28;20292;-76
2023/11/29 06:47:51;;;;;;;;;;;;;;;;;;5071807;28;19909;-76
2023/11/29 06:50:16;;;;;;;;;;;;;;;;;;5071950;28;19915;-75
2023/11/29 06:52:42;;;;;;;;;;;;;;;;;;5072055;28;19956;-76
2023/11/29 06:55:07;;;;;;;;;;;;;;;;;;5072059;28;19978;-76
2023/11/29 06:57:32;;;;;;;;;;;;;;;;;;5071913;28;20370;-75
2023/11/29 06:59:58;;;;;;;;;;;;;;;;;;5072139;28;19955;-76
2023/11/29 07:02:23;;;;;;;;;;;;;;;;;;5072038;28;20003;-76
2023/11/29 07:04:48;;;;;;;;;;;;;;;;;;5071871;28;20328;-75
2023/11/29 07:07:13;;;;;;;;;;;;;;;;;;5070476;28;19926;-76
2023/11/29 07:09:38;;;;;;;;;;;;;;;;;;5072073;28;19950;-76
2023/11/29 07:12:05;;;;;;;;;;;;;;;;;;5071727;28;20023;-76
2023/11/29 07:14:30;;;;;;;;;;;;;;;;;;5072063;28;20318;-76
2023/11/29 07:16:55;;;;;;;;;;;;;;;;;;5071751;28;20314;-75
2023/11/29 07:19:20;;;;;;;;;;;;;;;;;;5071784;28;20409;-76
2023/11/29 07:21:46;;;;;;;;;;;;;;;;;;5071963;28;19933;-76
2023/11/29 07:24:11;;;;;;;;;;;;;;;;;;5071875;28;20289;-76
2023/11/29 07:26:36;;;;;;;;;;;;;;;;;;5070395;28;20370;-76
2023/11/29 07:29:01;;;;;;;;;;;;;;;;;;5071479;28;19909;-76
2023/11/29 07:31:26;;;;;;;;;;;;;;;;;;5070276;28;20397;-76
2023/11/29 07:33:51;;;;;;;;;;;;;;;;;;5072014;28;19909;-76
2023/11/29 07:36:17;;;;;;;;;;;;;;;;;;5075432;28;19919;-76
2023/11/29 07:38:42;;;;;;;;;;;;;;;;;;5075158;28;20000;-76
2023/11/29 07:41:08;;;;;;;;;;;;;;;;;;5074255;28;20011;-76
2023/11/29 07:43:33;;;;;;;;;;;;;;;;;;5075302;28;19932;-75
2023/11/29 07:45:58;;;;;;;;;;;;;;;;;;5074104;28;19909;-76
2023/11/29 07:48:24;;;;;;;;;;;;;;;;;;5075029;28;19978;-76
2023/11/29 07:50:49;;;;;;;;;;;;;;;;;;5075298;28;20007;-76
2023/11/29 07:53:14;;;;;;;;;;;;;;;;;;5075108;28;20011;-76
2023/11/29 07:55:39;;;;;;;;;;;;;;;;;;5071959;28;19916;-76
2023/11/29 07:58:05;;;;;;;;;;;;;;;;;;5069040;28;19947;-76
2023/11/29 08:00:30;;;;;;;;;;;;;;;;;;5070558;28;20405;-76
2023/11/29 08:02:55;;;;;;;;;;;;;;;;;;5069183;28;20396;-76
2023/11/29 08:05:24;;;;;;;;;;;;;;;;;;5069236;28;19958;-76
2023/11/29 08:07:49;;;;;;;;;;;;;;;;;;5073522;28;20079;-76
2023/11/29 08:10:14;;;;;;;;;;;;;;;;;;5074964;28;20060;-76
2023/11/29 08:12:40;;;;;;;;;;;;;;;;;;5074629;28;19923;-76
2023/11/29 08:15:05;;;;;;;;;;;;;;;;;;5075267;28;20370;-77
2023/11/29 08:17:32;;;;;;;;;;;;;;;;;;5069792;28;19917;-77
2023/11/29 08:19:58;;;;;;;;;;;;;;;;;;5067292;28;19923;-76
2023/11/29 08:22:23;;;;;;;;;;;;;;;;;;5070810;28;19912;-77
2023/11/29 08:24:48;;;;;;;;;;;;;;;;;;5065311;28;20206;-77
2023/11/29 08:27:15;;;;;;;;;;;;;;;;;;5074286;28;19909;-77
2023/11/29 08:29:40;;;;;;;;;;;;;;;;;;5067340;28;19916;-77
2023/11/29 08:32:05;;;;;;;;;;;;;;;;;;5071640;28;19912;-76
2023/11/29 08:34:30;;;;;;;;;;;;;;;;;;5074302;28;19970;-76
2023/11/29 08:36:56;;;;;;;;;;;;;;;;;;5074185;28;19962;-76
2023/11/29 08:39:21;;;;;;;;;;;;;;;;;;5074314;28;19931;-76
2023/11/29 08:41:46;;;;;;;;;;;;;;;;;;5073168;28;19944;-76
2023/11/29 08:44:13;;;;;;;;;;;;;;;;;;5074347;28;19909;-77
2023/11/29 08:46:38;;;;;;;;;;;;;;;;;;5065766;28;19915;-77
2023/11/29 08:49:03;;;;;;;;;;;;;;;;;;5074198;28;19908;-77
2023/11/29 08:51:29;;;;;;;;;;;;;;;;;;5074082;28;19927;-76
2023/11/29 08:53:55;;;;;;;;;;;;;;;;;;5074101;28;20293;-77
2023/11/29 08:56:20;;;;;;;;;;;;;;;;;;5074157;28;19912;-76
2023/11/29 08:58:45;;;;;;;;;;;;;;;;;;5074090;28;20041;-76
2023/11/29 09:01:10;;;;;;;;;;;;;;;;;;5074113;28;19916;-77
2023/11/29 09:03:35;;;;;;;;;;;;;;;;;;5072476;28;19912;-77
2023/11/29 09:06:00;;;;;;;;;;;;;;;;;;5073790;28;20361;-76
2023/11/29 09:08:26;;;;;;;;;;;;;;;;;;5073768;28;20007;-77
2023/11/29 09:10:51;;;;;;;;;;;;;;;;;;5073737;28;19953;-76
2023/11/29 09:13:16;;;;;;;;;;;;;;;;;;5073554;28;19987;-77
2023/11/29 09:15:42;;;;;;;;;;;;;;;;;;5073667;28;19942;-77
2023/11/29 09:18:07;;;;;;;;;;;;;;;;;;5072281;28;19916;-76
2023/11/29 09:20:32;;;;;;;;;;;;;;;;;;5071755;28;19913;-76
2023/11/29 09:22:58;;;;;;;;;;;;;;;;;;5072083;28;19962;-77
2023/11/29 09:25:23;;;;;;;;;;;;;;;;;;5080833;28;20113;-77
2023/11/29 09:27:48;;;;;;;;;;;;;;;;;;5073303;28;20352;-77
2023/11/29 09:30:14;;;;;;;;;;;;;;;;;;5073025;28;19996;-77
2023/11/29 09:32:39;;;;;;;;;;;;;;;;;;5071449;28;19948;-77
2023/11/29 09:35:04;;;;;;;;;;;;;;;;;;5014006;28;20025;-77
2023/11/29 09:39:21;;;;;;;;;;;;;;;;;;5089668;28;20278;-77
2023/11/29 09:41:46;;;;;;;;;;;;;;;;;;5075230;28;20285;-77
2023/11/29 09:44:11;;;;;;;;;;;;;;;;;;4968449;27;20386;-77
2023/11/29 09:46:37;;;;;;;;;;;;;;;;;;4902397;28;101259;-77
2023/11/29 09:49:02;;;;;;;;;;;;;;;;;;5004866;28;19959;-77
2023/11/29 09:51:27;;;;;;;;;;;;;;;;;;5003577;28;20431;-77
2023/11/29 09:53:52;;;;;;;;;;;;;;;;;;5009683;28;19920;-77
2023/11/29 09:56:17;;;;;;;;;;;;;;;;;;5003963;28;19910;-77
2023/11/29 09:58:42;;;;;;;;;;;;;;;;;;5008080;28;19918;-77
2023/11/29 10:01:07;;;;;;;;;;;;;;;;;;5004183;28;19933;-77
2023/11/29 10:03:34;;;;;;;;;;;;;;;;;;5008080;28;20619;-77
2023/11/29 10:05:59;;;;;;;;;;;;;;;;;;5004016;28;19913;-77
2023/11/29 10:08:24;;;;;;;;;;;;;;;;;;5007341;28;19921;-77
2023/11/29 10:10:50;;;;;;;;;;;;;;;;;;4997020;28;19910;-77
2023/11/29 10:13:18;;;;;;;;;;;;;;;;;;4997979;28;20343;-77
2023/11/29 10:15:43;;;;;;;;;;;;;;;;;;5009487;28;19916;-77
2023/11/29 10:18:08;;;;;;;;;;;;;;;;;;5001703;28;19914;-77
2023/11/29 10:20:33;;;;;;;;;;;;;;;;;;5008204;28;19910;-77
2023/11/29 10:22:59;;;;;;;;;;;;;;;;;;5000715;28;19972;-77
2023/11/29 10:25:24;;;;;;;;;;;;;;;;;;5007907;28;19933;-77
2023/11/29 10:27:49;;;;;;;;;;;;;;;;;;5002796;28;19914;-77
2023/11/29 10:30:14;;;;;;;;;;;;;;;;;;4998252;28;20360;-77
2023/11/29 10:32:40;;;;;;;;;;;;;;;;;;4996236;28;20360;-77
2023/11/29 10:35:05;;;;;;;;;;;;;;;;;;5004783;28;19921;-77
2023/11/29 10:37:30;;;;;;;;;;;;;;;;;;4994899;28;19917;-77
2023/11/29 10:39:55;;;;;;;;;;;;;;;;;;5015042;28;19910;-77
2023/11/29 10:42:20;;;;;;;;;;;;;;;;;;5018981;28;19909;-79
2023/11/29 10:44:46;;;;;;;;;;;;;;;;;;5013747;28;19913;-77
2023/11/29 10:47:11;;;;;;;;;;;;;;;;;;5003150;28;20426;-77
2023/11/29 10:49:36;;;;;;;;;;;;;;;;;;5017668;28;19956;-77
2023/11/29 10:52:01;;;;;;;;;;;;;;;;;;5016210;28;20004;-77
2023/11/29 10:54:26;;;;;;;;;;;;;;;;;;5016845;28;20003;-77
2023/11/29 10:56:51;;;;;;;;;;;;;;;;;;5017039;28;19909;-77
2023/11/29 10:59:16;;;;;;;;;;;;;;;;;;5017224;28;19914;-78
2023/11/29 11:01:43;;;;;;;;;;;;;;;;;;4991479;28;19917;-78
2023/11/29 11:04:09;;;;;;;;;;;;;;;;;;5016839;28;19909;-77
2023/11/29 11:06:35;;;;;;;;;;;;;;;;;;4987237;28;19909;-78
2023/11/29 11:09:00;;;;;;;;;;;;;;;;;;5006951;28;19910;-77
2023/11/29 11:11:25;;;;;;;;;;;;;;;;;;4990750;28;19910;-77
2023/11/29 11:13:50;;;;;;;;;;;;;;;;;;5001931;28;19909;-78
2023/11/29 11:16:15;;;;;;;;;;;;;;;;;;5016668;28;19916;-77
2023/11/29 11:18:40;;;;;;;;;;;;;;;;;;5005372;28;19965;-78
2023/11/29 11:21:06;;;;;;;;;;;;;;;;;;5004564;28;19940;-77
2023/11/29 11:23:31;;;;;;;;;;;;;;;;;;5016387;28;19941;-77
2023/11/29 11:25:56;;;;;;;;;;;;;;;;;;4994075;28;19909;-77
2023/11/29 11:28:22;;;;;;;;;;;;;;;;;;5006560;28;19917;-78
2023/11/29 11:30:47;;;;;;;;;;;;;;;;;;4999512;28;19932;-77
2023/11/29 11:33:13;;;;;;;;;;;;;;;;;;4998947;28;19910;-77
2023/11/29 11:35:38;;;;;;;;;;;;;;;;;;4996157;28;19921;-77
2023/11/29 11:38:03;;;;;;;;;;;;;;;;;;5004181;28;19918;-77
2023/11/29 11:40:29;;;;;;;;;;;;;;;;;;5007303;28;19910;-77
2023/11/29 11:42:54;;;;;;;;;;;;;;;;;;5002612;28;19909;-77
2023/11/29 11:45:20;;;;;;;;;;;;;;;;;;5013383;28;19949;-77
2023/11/29 11:47:46;;;;;;;;;;;;;;;;;;4998991;28;19917;-78
2023/11/29 11:50:11;;;;;;;;;;;;;;;;;;4998606;28;19913;-77
2023/11/29 11:52:36;;;;;;;;;;;;;;;;;;5016465;28;19941;-78
2023/11/29 11:55:01;;;;;;;;;;;;;;;;;;5008289;28;20252;-78
2023/11/29 11:57:26;;;;;;;;;;;;;;;;;;5008548;28;19914;-78
2023/11/29 11:59:51;;;;;;;;;;;;;;;;;;5011489;28;19910;-78
2023/11/29 12:02:17;;;;;;;;;;;;;;;;;;4987475;28;19917;-78
2023/11/29 12:04:42;;;;;;;;;;;;;;;;;;4995073;28;19917;-78
2023/11/29 12:07:07;;;;;;;;;;;;;;;;;;4986364;28;19909;-77
2023/11/29 12:09:32;;;;;;;;;;;;;;;;;;5016074;28;19916;-78
2023/11/29 12:11:57;;;;;;;;;;;;;;;;;;5002453;28;19932;-78
2023/11/29 12:14:22;;;;;;;;;;;;;;;;;;5013521;28;20375;-78
2023/11/29 12:16:47;;;;;;;;;;;;;;;;;;5009451;28;19909;-78
2023/11/29 12:19:12;;;;;;;;;;;;;;;;;;4990140;28;20474;-78
2023/11/29 12:21:38;;;;;;;;;;;;;;;;;;5015930;28;19936;-78
2023/11/29 12:24:03;;;;;;;;;;;;;;;;;;4991963;28;20011;-78
2023/11/29 12:26:28;;;;;;;;;;;;;;;;;;4987043;28;20094;-78
2023/11/29 12:28:56;;;;;;;;;;;;;;;;;;4993152;28;20371;-78
2023/11/29 12:31:21;;;;;;;;;;;;;;;;;;5008429;28;20404;-78
2023/11/29 12:33:46;;;;;;;;;;;;;;;;;;4990512;28;20326;-78
2023/11/29 12:36:11;;;;;;;;;;;;;;;;;;5008733;28;19920;-78
2023/11/29 12:38:37;;;;;;;;;;;;;;;;;;4988081;28;19925;-78
2023/11/29 12:41:02;;;;;;;;;;;;;;;;;;4987634;28;19910;-78
2023/11/29 12:43:27;;;;;;;;;;;;;;;;;;5015949;28;19909;-78
2023/11/29 12:45:53;;;;;;;;;;;;;;;;;;4998397;28;19916;-78
2023/11/29 12:48:18;;;;;;;;;;;;;;;;;;4989324;28;19933;-78
2023/11/29 12:50:45;;;;;;;;;;;;;;;;;;4998090;28;19910;-78
2023/11/29 12:53:10;;;;;;;;;;;;;;;;;;5008194;28;20359;-77
2023/11/29 12:55:35;;;;;;;;;;;;;;;;;;5015569;28;19910;-78
2023/11/29 12:58:00;;;;;;;;;;;;;;;;;;5015448;28;20287;-77
2023/11/29 13:00:25;;;;;;;;;;;;;;;;;;4982053;28;19945;-78
2023/11/29 13:02:50;;;;;;;;;;;;;;;;;;5015811;28;19910;-78
2023/11/29 13:05:15;;;;;;;;;;;;;;;;;;5007524;28;19910;-78
2023/11/29 13:07:40;;;;;;;;;;;;;;;;;;5015871;28;20363;-78
2023/11/29 13:10:06;;;;;;;;;;;;;;;;;;4992205;28;19909;-78
2023/11/29 13:12:31;;;;;;;;;;;;;;;;;;4999007;28;20270;-77
2023/11/29 13:14:56;;;;;;;;;;;;;;;;;;4990996;28;20323;-78
2023/11/29 13:17:22;;;;;;;;;;;;;;;;;;5016158;28;19913;-79
2023/11/29 13:19:47;;;;;;;;;;;;;;;;;;4987621;28;19960;-78
2023/11/29 13:22:12;;;;;;;;;;;;;;;;;;4992159;28;19915;-79
2023/11/29 13:24:38;;;;;;;;;;;;;;;;;;5008500;28;19909;-79
2023/11/29 13:27:05;;;;;;;;;;;;;;;;;;5002206;28;19980;-79
2023/11/29 13:29:30;;;;;;;;;;;;;;;;;;5001245;28;19910;-79
2023/11/29 13:31:55;;;;;;;;;;;;;;;;;;5012006;28;20369;-80
2023/11/29 13:34:20;;;;;;;;;;;;;;;;;;5002090;28;19910;-78
2023/11/29 13:36:45;;;;;;;;;;;;;;;;;;5004373;28;19909;-79
2023/11/29 13:39:11;;;;;;;;;;;;;;;;;;4985168;28;19925;-80
2023/11/29 13:41:37;;;;;;;;;;;;;;;;;;4979987;28;19910;-79
2023/11/29 13:44:02;;;;;;;;;;;;;;;;;;4986630;28;20024;-80
2023/11/29 13:46:27;;;;;;;;;;;;;;;;;;4987736;28;19910;-79
2023/11/29 13:48:53;;;;;;;;;;;;;;;;;;4997511;28;19933;-81
2023/11/29 13:51:18;;;;;;;;;;;;;;;;;;5005288;28;19932;-81
2023/11/29 13:53:43;;;;;;;;;;;;;;;;;;4996758;28;20411;-80
2023/11/29 13:56:08;;;;;;;;;;;;;;;;;;4997000;28;19910;-81
2023/11/29 13:58:33;;;;;;;;;;;;;;;;;;5004592;28;19926;-79
2023/11/29 14:00:58;;;;;;;;;;;;;;;;;;5006102;28;19910;-81
2023/11/29 14:03:24;;;;;;;;;;;;;;;;;;5004636;28;19917;-80
2023/11/29 14:05:49;;;;;;;;;;;;;;;;;;5005038;28;19913;-80
2023/11/29 14:08:14;;;;;;;;;;;;;;;;;;4997215;28;19914;-80
2023/11/29 14:10:39;;;;;;;;;;;;;;;;;;5008014;28;19916;-79
2023/11/29 14:13:04;;;;;;;;;;;;;;;;;;5007734;28;19913;-79
2023/11/29 14:15:29;;;;;;;;;;;;;;;;;;4987580;28;19956;-80
2023/11/29 14:17:55;;;;;;;;;;;;;;;;;;4982365;28;19965;-79
2023/11/29 14:20:20;;;;;;;;;;;;;;;;;;4986342;28;19965;-79
2023/11/29 14:22:45;;;;;;;;;;;;;;;;;;4978403;28;19910;-79
2023/11/29 14:25:11;;;;;;;;;;;;;;;;;;4987854;28;19920;-80
2023/11/29 14:27:36;;;;;;;;;;;;;;;;;;4989937;28;19992;-79
2023/11/29 14:30:02;;;;;;;;;;;;;;;;;;5000085;28;20359;-79
2023/11/29 14:32:27;;;;;;;;;;;;;;;;;;5000072;28;19914;-79
2023/11/29 14:34:52;;;;;;;;;;;;;;;;;;4987949;28;20386;-79
2023/11/29 14:37:17;;;;;;;;;;;;;;;;;;5002685;28;19921;-79
2023/11/29 14:39:43;;;;;;;;;;;;;;;;;;4999899;28;19910;-78
2023/11/29 14:42:08;;;;;;;;;;;;;;;;;;4926449;28;20005;-78
2023/11/29 14:45:38;;;;;;;;;;;;;;;;;;5092763;28;19997;-78
2023/11/29 14:48:03;;;;;;;;;;;;;;;;;;5035040;27;20354;-79
2023/11/29 14:50:28;;;;;;;;;;;;;;;;;;5074479;28;20380;-79
2023/11/29 14:52:53;;;;;;;;;;;;;;;;;;5086475;28;19927;-79
2023/11/29 14:55:19;;;;;;;;;;;;;;;;;;5085794;28;19991;-80
2023/11/29 14:57:44;;;;;;;;;;;;;;;;;;5069976;28;19917;-79
2023/11/29 15:00:09;;;;;;;;;;;;;;;;;;5079929;28;20389;-78
2023/11/29 15:02:34;;;;;;;;;;;;;;;;;;5072416;28;20326;-79
2023/11/29 15:04:59;;;;;;;;;;;;;;;;;;5072101;28;19921;-80
2023/11/29 15:07:24;;;;;;;;;;;;;;;;;;5079676;28;19962;-79
2023/11/29 15:09:51;;;;;;;;;;;;;;;;;;5071332;28;19973;-79
2023/11/29 15:12:16;;;;;;;;;;;;;;;;;;5072244;28;19912;-79
2023/11/29 15:14:41;;;;;;;;;;;;;;;;;;5072611;28;19916;-79
2023/11/29 15:17:06;;;;;;;;;;;;;;;;;;5070402;28;19916;-78
2023/11/29 15:19:31;;;;;;;;;;;;;;;;;;5074059;28;19909;-78
2023/11/29 15:21:58;;;;;;;;;;;;;;;;;;5077310;28;19908;-78
2023/11/29 15:24:24;;;;;;;;;;;;;;;;;;5071317;28;19913;-79
2023/11/29 15:26:49;;;;;;;;;;;;;;;;;;5076711;28;19909;-78
2023/11/29 15:29:14;;;;;;;;;;;;;;;;;;5069841;28;19911;-78
2023/11/29 15:31:40;;;;;;;;;;;;;;;;;;5070743;28;19909;-78
2023/11/29 15:34:05;;;;;;;;;;;;;;;;;;5070731;28;19924;-78
2023/11/29 15:36:30;;;;;;;;;;;;;;;;;;5070768;28;19912;-79
2023/11/29 15:38:56;;;;;;;;;;;;;;;;;;5079176;28;20366;-79
2023/11/29 15:41:21;;;;;;;;;;;;;;;;;;5070741;28;20378;-78
2023/11/29 15:43:46;;;;;;;;;;;;;;;;;;5074918;28;20139;-79
2023/11/29 15:46:11;;;;;;;;;;;;;;;;;;5098076;28;19909;-78
2023/11/29 15:48:36;;;;;;;;;;;;;;;;;;5089250;28;19915;-78
2023/11/29 15:51:01;;;;;;;;;;;;;;;;;;5090395;28;19908;-78
2023/11/29 15:53:27;;;;;;;;;;;;;;;;;;5098627;28;20058;-79
2023/11/29 15:55:53;;;;;;;;;;;;;;;;;;5083459;28;20327;-79
2023/11/29 15:58:18;;;;;;;;;;;;;;;;;;5079079;28;19962;-78
2023/11/29 16:00:43;;;;;;;;;;;;;;;;;;5089500;28;19951;-79
2023/11/29 16:03:09;;;;;;;;;;;;;;;;;;5089412;28;19916;-79
2023/11/29 16:05:34;;;;;;;;;;;;;;;;;;5077662;28;20289;-79
2023/11/29 16:07:59;;;;;;;;;;;;;;;;;;5084693;28;19912;-77
2023/11/29 16:10:24;;;;;;;;;;;;;;;;;;5075578;28;19908;-79
2023/11/29 16:12:50;;;;;;;;;;;;;;;;;;5086634;28;20022;-79
2023/11/29 16:15:15;;;;;;;;;;;;;;;;;;5076728;28;19970;-77
2023/11/29 16:17:40;;;;;;;;;;;;;;;;;;5082581;28;20353;-78
2023/11/29 16:20:05;;;;;;;;;;;;;;;;;;5084680;28;20330;-76
2023/11/29 16:22:30;;;;;;;;;;;;;;;;;;5085859;28;19912;-79
2023/11/29 16:24:56;;;;;;;;;;;;;;;;;;5081933;28;19917;-78
2023/11/29 16:27:25;;;;;;;;;;;;;;;;;;5074660;28;19916;-78
2023/11/29 16:29:50;;;;;;;;;;;;;;;;;;5075752;28;19949;-78
2023/11/29 16:32:16;;;;;;;;;;;;;;;;;;5075459;28;19920;-78
2023/11/29 16:34:41;;;;;;;;;;;;;;;;;;5075480;28;19944;-79